China Spring, Texas
Current Conditions -  °F | °C
As of 5:51 AM on Friday 24 Oct 2014 (Local Time) from KACT Reporting Station
Scattered Clouds Scattered Clouds  
Wind Chill: 63°   Ceiling: Unl
Heat Index: 63°   Visibility: 10mi
Dew Point: 55°   Wind: 9mph
Humidity: 75%   Direction: 190°S
Pressure: 30.13"   Gusts: NA
Location:  31.61°N, 97.33°W
Report Text: KACT 241051Z 19008KT 10SM FEW060 SCT075 17/13 A3013 RMK AO2 SLP197 T01720128
Loading
Personal Weather Stations






























Interactive Weather Map
Tropical Storm Tracking
New forecast layout! Learn more

10-Day Weather Forecast

Advertisements
Track Severe Weather on mobile